Time;durP1;ratioP1;P1;durP2;ratioP2;P2;SDS_P1;SDS_P2;PMS_P1;PMS_P2;Temp;Humidity;BMP_temperature;BMP_pressure;BME280_temperature;BME280_humidity;BME280_pressure;Samples;Min_cycle;Max_cycle;Signal;HPM_P1;HPM_P2
2022/03/05 00:01:04;;;;;;;20.00;10.80;;;3.60;99.90;;;;;;5072504;28;20590;-46
2022/03/05 00:03:29;;;;;;;18.80;9.40;;;3.40;99.90;;;;;;5072684;28;20174;-46
2022/03/05 00:05:55;;;;;;;20.42;9.65;;;3.50;99.90;;;;;;5072614;28;20165;-46
2022/03/05 00:08:21;;;;;;;21.15;11.43;;;3.40;99.90;;;;;;5072257;28;20213;-46
2022/03/05 00:10:47;;;;;;;21.88;9.95;;;3.50;99.90;;;;;;5072567;28;20169;-46
2022/03/05 00:13:13;;;;;;;21.48;10.90;;;3.30;99.90;;;;;;5071977;28;20527;-46
2022/03/05 00:15:39;;;;;;;20.05;10.43;;;3.30;99.90;;;;;;5072299;28;20170;-46
2022/03/05 00:18:04;;;;;;;20.63;10.82;;;3.30;99.90;;;;;;5072362;28;20220;-46
2022/03/05 00:20:30;;;;;;;24.40;11.25;;;3.40;99.90;;;;;;5072146;28;20174;-46
2022/03/05 00:22:56;;;;;;;20.20;10.65;;;3.40;99.90;;;;;;5072026;28;20186;-46
2022/03/05 00:25:24;;;;;;;20.48;10.35;;;3.40;99.90;;;;;;5054140;28;20220;-46
2022/03/05 00:27:51;;;;;;;23.02;10.73;;;3.30;99.90;;;;;;5071795;28;20296;-46
2022/03/05 00:30:16;;;;;;;19.38;10.98;;;3.20;99.90;;;;;;5071951;28;20162;-46
2022/03/05 00:32:43;;;;;;;23.58;10.48;;;3.20;99.90;;;;;;5071980;28;20165;-46
2022/03/05 00:35:10;;;;;;;23.98;10.65;;;3.20;99.90;;;;;;5071899;28;20651;-46
2022/03/05 00:37:36;;;;;;;26.35;11.45;;;3.10;99.90;;;;;;5072388;28;20188;-46
2022/03/05 00:40:02;;;;;;;24.95;10.90;;;3.10;99.90;;;;;;5071891;28;20170;-46
2022/03/05 00:42:27;;;;;;;25.83;11.68;;;3.00;99.90;;;;;;5071500;28;20541;-46
2022/03/05 00:44:53;;;;;;;20.30;11.32;;;3.10;99.90;;;;;;5071681;28;20166;-46
2022/03/05 00:47:19;;;;;;;24.23;10.88;;;3.10;99.90;;;;;;5071483;28;20198;-46
2022/03/05 00:49:44;;;;;;;22.92;11.45;;;3.00;99.90;;;;;;5072072;28;20174;-46
2022/03/05 00:52:10;;;;;;;24.77;12.13;;;3.00;99.90;;;;;;5071910;28;20166;-46
2022/03/05 00:54:35;;;;;;;33.72;11.88;;;2.90;99.90;;;;;;5072492;28;20180;-46
2022/03/05 00:57:02;;;;;;;27.15;11.48;;;3.00;99.90;;;;;;5071914;28;20170;-46
2022/03/05 00:59:28;;;;;;;25.52;12.13;;;3.00;99.90;;;;;;5071348;28;20196;-46
2022/03/05 01:01:53;;;;;;;26.33;12.10;;;2.80;99.90;;;;;;5071730;28;20707;-46
2022/03/05 01:04:19;;;;;;;28.50;11.82;;;2.90;99.90;;;;;;5071785;28;20278;-46
2022/03/05 01:06:44;;;;;;;26.63;12.15;;;2.80;99.90;;;;;;5071795;28;20162;-46
2022/03/05 01:09:10;;;;;;;24.90;11.02;;;2.80;99.90;;;;;;5071928;28;20221;-46
2022/03/05 01:11:37;;;;;;;26.08;12.32;;;2.80;99.90;;;;;;5054061;28;20201;-46
2022/03/05 01:14:03;;;;;;;30.58;13.95;;;2.80;99.90;;;;;;5071962;28;20174;-46
2022/03/05 01:16:28;;;;;;;30.85;13.23;;;2.80;99.90;;;;;;5071744;28;21190;-46
2022/03/05 01:18:54;;;;;;;31.77;13.85;;;2.70;99.90;;;;;;5071697;28;20195;-46
2022/03/05 01:21:19;;;;;;;26.42;12.68;;;2.70;99.90;;;;;;5071572;28;20177;-46
2022/03/05 01:23:45;;;;;;;24.27;11.60;;;2.70;99.90;;;;;;5071644;28;20173;-46
2022/03/05 01:26:10;;;;;;;30.30;13.75;;;2.60;99.90;;;;;;5071613;28;20170;-46
2022/03/05 01:28:36;;;;;;;29.58;12.55;;;2.70;99.90;;;;;;5071825;28;20220;-46
2022/03/05 01:31:02;;;;;;;26.85;12.35;;;2.70;99.90;;;;;;5071609;28;20170;-46
2022/03/05 01:33:27;;;;;;;31.67;13.75;;;2.70;99.90;;;;;;5071521;28;20200;-46
2022/03/05 01:35:53;;;;;;;31.27;13.68;;;2.70;99.90;;;;;;5071639;28;20162;-46
2022/03/05 01:38:18;;;;;;;31.05;13.80;;;2.60;99.90;;;;;;5071609;28;20162;-46
2022/03/05 01:40:45;;;;;;;34.47;14.68;;;2.60;99.90;;;;;;5071744;28;20615;-46
2022/03/05 01:43:11;;;;;;;26.30;12.65;;;2.60;99.90;;;;;;5071480;28;20188;-47
2022/03/05 01:45:37;;;;;;;29.65;12.73;;;2.60;99.90;;;;;;5053653;28;20222;-46
2022/03/05 01:48:03;;;;;;;28.45;13.35;;;2.60;99.90;;;;;;5071368;28;20206;-46
2022/03/05 01:50:30;;;;;;;32.95;14.75;;;2.50;99.90;;;;;;5053561;28;20265;-46
2022/03/05 01:52:55;;;;;;;32.33;14.07;;;2.50;99.90;;;;;;5071238;28;20227;-46
2022/03/05 01:55:23;;;;;;;31.67;14.60;;;2.50;99.90;;;;;;5071335;28;20166;-46
2022/03/05 01:57:48;;;;;;;30.75;13.80;;;2.50;99.90;;;;;;5071390;28;20166;-46
2022/03/05 02:00:15;;;;;;;34.28;13.95;;;2.50;99.90;;;;;;5071292;28;20177;-46
2022/03/05 02:02:42;;;;;;;29.88;14.20;;;2.60;99.90;;;;;;5071369;28;20226;-46
2022/03/05 02:05:09;;;;;;;33.38;14.63;;;2.50;99.90;;;;;;5071525;28;20167;-46
2022/03/05 02:07:35;;;;;;;33.35;14.38;;;2.40;99.90;;;;;;5071412;28;20208;-46
2022/03/05 02:10:01;;;;;;;36.17;14.35;;;2.40;99.90;;;;;;5072060;28;20170;-46
2022/03/05 02:12:31;;;;;;;31.98;14.07;;;2.40;99.90;;;;;;5074715;28;20218;-46
2022/03/05 02:14:58;;;;;;;34.25;14.65;;;2.50;99.90;;;;;;5075006;28;20178;-46
2022/03/05 02:17:24;;;;;;;38.13;14.35;;;2.30;99.90;;;;;;5074823;28;20194;-46
2022/03/05 02:19:50;;;;;;;30.85;14.93;;;2.30;99.90;;;;;;5074734;28;20177;-46
2022/03/05 02:22:15;;;;;;;32.13;14.02;;;2.20;99.90;;;;;;5074592;28;20158;-46
2022/03/05 02:24:41;;;;;;;32.75;14.23;;;2.20;99.90;;;;;;5074774;28;20181;-46
2022/03/05 02:27:08;;;;;;;32.70;13.23;;;2.20;99.90;;;;;;5056931;28;20166;-46
2022/03/05 02:29:35;;;;;;;35.97;14.88;;;2.20;99.90;;;;;;5075014;28;20181;-46
2022/03/05 02:32:01;;;;;;;34.85;14.65;;;2.20;99.90;;;;;;5074571;28;20523;-47
2022/03/05 02:34:27;;;;;;;34.40;14.60;;;2.20;99.90;;;;;;5074504;28;20607;-46
2022/03/05 02:36:53;;;;;;;28.23;14.30;;;2.20;99.90;;;;;;5074406;28;20166;-46
2022/03/05 02:39:18;;;;;;;31.67;14.52;;;2.20;99.90;;;;;;5074297;28;20507;-46
2022/03/05 02:41:44;;;;;;;33.17;15.13;;;2.20;99.90;;;;;;5074322;28;20255;-46
2022/03/05 02:44:10;;;;;;;32.03;13.68;;;2.20;99.90;;;;;;5074230;28;20158;-46
2022/03/05 02:46:36;;;;;;;37.58;14.32;;;2.10;99.90;;;;;;5074449;28;20214;-46
2022/03/05 02:49:03;;;;;;;36.50;14.48;;;1.90;99.90;;;;;;5074066;28;20229;-46
2022/03/05 02:51:29;;;;;;;34.78;14.25;;;2.00;99.90;;;;;;5074293;28;20176;-46
2022/03/05 02:53:55;;;;;;;36.80;14.75;;;1.90;99.90;;;;;;5074083;28;20178;-46
2022/03/05 02:56:21;;;;;;;37.08;15.70;;;1.90;99.90;;;;;;5074050;28;20229;-46
2022/03/05 02:58:47;;;;;;;33.40;15.73;;;1.90;99.90;;;;;;5073953;28;20170;-46
2022/03/05 03:01:13;;;;;;;34.55;15.57;;;2.00;99.90;;;;;;5073905;28;20241;-46
2022/03/05 03:03:38;;;;;;;36.50;16.05;;;2.00;99.90;;;;;;5074158;28;20167;-46
2022/03/05 03:06:05;;;;;;;35.05;14.85;;;1.90;99.90;;;;;;5074159;28;20185;-46
2022/03/05 03:08:31;;;;;;;36.72;15.48;;;2.00;99.90;;;;;;5073863;28;20213;-46
2022/03/05 03:10:57;;;;;;;36.13;15.50;;;1.90;99.90;;;;;;5073771;28;20627;-46
2022/03/05 03:13:23;;;;;;;32.25;13.65;;;1.90;99.90;;;;;;5073671;28;20167;-46
2022/03/05 03:15:48;;;;;;;34.63;15.07;;;1.90;99.90;;;;;;5073666;28;20215;-46
2022/03/05 03:18:16;;;;;;;37.42;16.48;;;1.80;99.90;;;;;;5073687;28;20170;-46
2022/03/05 03:20:42;;;;;;;39.95;16.23;;;1.80;99.90;;;;;;5073554;28;20245;-46
2022/03/05 03:23:08;;;;;;;39.00;15.80;;;1.80;99.90;;;;;;5073025;28;20197;-46
2022/03/05 03:25:33;;;;;;;36.45;15.70;;;1.80;99.90;;;;;;5073369;28;20201;-46
2022/03/05 03:27:59;;;;;;;36.72;15.02;;;1.80;99.90;;;;;;5073336;28;20282;-46
2022/03/05 03:30:24;;;;;;;38.00;16.13;;;1.70;99.90;;;;;;5055438;28;20521;-46
2022/03/05 03:32:50;;;;;;;36.22;16.27;;;1.70;99.90;;;;;;5073321;28;20162;-46
2022/03/05 03:35:16;;;;;;;38.78;15.00;;;1.70;99.90;;;;;;5073314;28;20170;-46
2022/03/05 03:37:42;;;;;;;36.60;15.65;;;1.70;99.90;;;;;;5073385;28;20178;-46
2022/03/05 03:40:11;;;;;;;33.15;15.77;;;1.70;99.90;;;;;;5073688;28;20220;-46
2022/03/05 03:42:37;;;;;;;37.75;14.65;;;1.60;99.90;;;;;;5073445;28;20553;-46
2022/03/05 03:45:04;;;;;;;39.25;15.25;;;1.70;99.90;;;;;;5072871;28;20176;-46
2022/03/05 03:47:30;;;;;;;34.40;15.73;;;1.70;99.90;;;;;;5072899;28;20606;-46
2022/03/05 03:49:55;;;;;;;31.70;14.70;;;1.70;99.90;;;;;;5073049;28;20165;-46
2022/03/05 03:52:21;;;;;;;34.78;14.63;;;1.60;99.90;;;;;;5072774;28;20202;-46
2022/03/05 03:54:48;;;;;;;34.70;15.55;;;1.60;99.90;;;;;;5072889;28;20220;-46
2022/03/05 03:57:13;;;;;;;40.03;16.65;;;1.60;99.90;;;;;;5072795;28;20181;-46
2022/03/05 03:59:39;;;;;;;34.13;15.75;;;1.60;99.90;;;;;;5072726;28;20170;-46
2022/03/05 04:02:06;;;;;;;38.67;15.65;;;1.60;99.90;;;;;;5073053;28;20169;-47
2022/03/05 04:04:31;;;;;;;39.50;15.88;;;1.60;99.90;;;;;;5072917;28;20174;-46
2022/03/05 04:09:41;;;;;;;39.60;15.77;;;1.50;99.90;;;;;;5072813;28;20279;-46
2022/03/05 04:12:08;;;;;;;36.58;15.23;;;1.50;99.90;;;;;;5072849;28;20634;-46
2022/03/05 04:14:33;;;;;;;37.10;15.57;;;1.50;99.90;;;;;;5072943;28;20174;-46
2022/03/05 04:16:59;;;;;;;39.58;16.48;;;1.50;99.90;;;;;;5072327;28;20162;-46
2022/03/05 04:19:24;;;;;;;40.30;15.48;;;1.50;99.90;;;;;;5072411;28;20685;-46
2022/03/05 04:21:50;;;;;;;44.47;15.85;;;1.50;99.90;;;;;;5072258;28;20205;-46
2022/03/05 04:24:16;;;;;;;41.42;15.65;;;1.40;99.90;;;;;;5072684;28;20193;-47
2022/03/05 04:26:41;;;;;;;32.15;14.68;;;1.40;99.90;;;;;;5072259;28;20224;-47
2022/03/05 04:29:07;;;;;;;35.97;14.73;;;1.50;99.90;;;;;;5072443;28;20655;-46
2022/03/05 04:31:32;;;;;;;38.50;14.77;;;1.40;99.90;;;;;;5072169;28;20627;-46
2022/03/05 04:33:58;;;;;;;31.45;14.18;;;1.40;99.90;;;;;;5071269;28;20162;-46
2022/03/05 04:36:23;;;;;;;39.03;15.55;;;1.40;99.90;;;;;;5072168;28;20523;-46
2022/03/05 04:38:49;;;;;;;35.57;14.30;;;1.50;99.90;;;;;;5072422;28;20623;-46
2022/03/05 04:41:15;;;;;;;36.47;13.68;;;1.40;99.90;;;;;;5072114;28;20173;-46
2022/03/05 04:43:40;;;;;;;41.33;16.65;;;1.40;99.90;;;;;;5072196;28;20170;-46
2022/03/05 04:46:06;;;;;;;35.40;14.68;;;1.40;99.90;;;;;;5072170;28;20747;-47
2022/03/05 04:48:31;;;;;;;44.42;16.40;;;1.40;99.90;;;;;;5071925;28;20244;-46
2022/03/05 04:50:57;;;;;;;35.05;15.13;;;1.40;99.90;;;;;;5072053;28;20165;-46
2022/03/05 04:53:23;;;;;;;33.67;15.23;;;1.30;99.90;;;;;;5071826;28;20176;-46
2022/03/05 04:55:49;;;;;;;34.85;13.68;;;1.30;99.90;;;;;;5071942;28;20623;-46
2022/03/05 04:58:16;;;;;;;38.00;15.32;;;1.30;99.90;;;;;;5071903;28;20178;-46
2022/03/05 05:00:41;;;;;;;38.72;15.65;;;1.30;99.90;;;;;;5071895;28;20627;-46
2022/03/05 05:03:07;;;;;;;35.97;14.85;;;1.30;99.90;;;;;;5072176;28;20177;-46
2022/03/05 05:05:33;;;;;;;37.45;15.27;;;1.30;99.90;;;;;;5071860;28;20174;-46
2022/03/05 05:07:58;;;;;;;38.17;15.60;;;1.30;99.90;;;;;;5071903;28;20209;-47
2022/03/05 05:10:24;;;;;;;41.15;15.43;;;1.20;99.90;;;;;;5071662;28;20170;-47
2022/03/05 05:12:50;;;;;;;39.13;16.10;;;1.30;99.90;;;;;;5071959;28;20696;-46
2022/03/05 05:15:15;;;;;;;38.88;14.85;;;1.20;99.90;;;;;;5071984;28;20587;-46
2022/03/05 05:17:41;;;;;;;36.92;14.88;;;1.30;99.90;;;;;;5071702;28;20166;-46
2022/03/05 05:20:08;;;;;;;38.27;15.73;;;1.30;99.90;;;;;;5072041;28;20162;-47
2022/03/05 05:22:34;;;;;;;37.50;15.33;;;1.20;99.90;;;;;;5071924;28;20260;-46
2022/03/05 05:25:00;;;;;;;37.00;15.20;;;1.20;99.90;;;;;;5071470;28;20257;-46
2022/03/05 05:27:26;;;;;;;43.38;15.80;;;1.20;99.90;;;;;;5071565;28;20166;-46
2022/03/05 05:29:52;;;;;;;35.20;15.43;;;1.20;99.90;;;;;;5071919;28;20260;-47
2022/03/05 05:32:17;;;;;;;32.88;13.50;;;1.30;99.90;;;;;;5071649;28;20211;-47
2022/03/05 05:34:43;;;;;;;30.85;15.18;;;1.20;99.90;;;;;;5071430;28;20166;-46
2022/03/05 05:37:09;;;;;;;40.57;15.70;;;1.20;99.90;;;;;;5071524;28;20212;-46
2022/03/05 05:39:35;;;;;;;38.87;16.00;;;1.10;99.90;;;;;;5071799;28;20185;-47
2022/03/05 05:42:00;;;;;;;35.43;14.10;;;1.10;99.90;;;;;;5071486;28;20244;-46
2022/03/05 05:44:26;;;;;;;39.83;15.25;;;1.10;99.90;;;;;;5071476;28;20170;-46
2022/03/05 05:46:51;;;;;;;33.40;14.60;;;1.10;99.90;;;;;;5075075;28;20678;-46
2022/03/05 05:49:17;;;;;;;36.83;15.37;;;1.10;99.90;;;;;;5075749;28;20212;-46
2022/03/05 05:51:42;;;;;;;40.97;16.33;;;1.10;99.90;;;;;;5075362;28;20166;-48
2022/03/05 05:54:08;;;;;;;36.30;14.63;;;1.00;99.90;;;;;;5075520;28;20249;-46
2022/03/05 05:56:34;;;;;;;36.03;14.80;;;3.50;99.90;;;;;;5075725;28;20158;-46
2022/03/05 05:59:00;;;;;;;43.53;15.73;;;1.00;99.90;;;;;;5075030;28;20253;-46
2022/03/05 06:01:26;;;;;;;36.60;15.95;;;1.00;99.90;;;;;;5075096;28;20174;-47
2022/03/05 06:03:53;;;;;;;38.63;16.73;;;0.90;99.90;;;;;;5075236;28;20235;-46
2022/03/05 06:06:19;;;;;;;37.83;14.57;;;0.90;99.90;;;;;;5074975;28;20654;-47
2022/03/05 06:08:44;;;;;;;33.27;13.67;;;1.00;99.90;;;;;;5074789;28;20193;-46
2022/03/05 06:11:10;;;;;;;38.33;15.53;;;1.00;99.90;;;;;;5074422;28;20703;-46
2022/03/05 06:13:36;;;;;;;37.10;15.45;;;0.90;99.90;;;;;;5075165;28;20576;-47
2022/03/05 06:16:02;;;;;;;37.33;16.17;;;1.00;99.90;;;;;;5075113;28;20173;-46
2022/03/05 06:18:27;;;;;;;41.00;16.38;;;1.00;99.90;;;;;;5075006;28;20242;-47
2022/03/05 06:20:53;;;;;;;39.90;16.90;;;1.00;99.90;;;;;;5074705;28;20166;-46
2022/03/05 06:23:18;;;;;;;38.93;15.27;;;1.00;99.90;;;;;;5074525;28;20170;-47
2022/03/05 06:25:44;;;;;;;37.60;15.10;;;1.10;99.90;;;;;;5074632;28;20166;-47
2022/03/05 06:28:10;;;;;;;41.03;15.95;;;1.00;99.90;;;;;;5074343;28;20562;-46
2022/03/05 06:30:35;;;;;;;43.33;17.80;;;1.00;99.90;;;;;;5056536;28;20303;-47
2022/03/05 06:33:01;;;;;;;46.28;16.60;;;1.00;99.90;;;;;;5074385;28;20181;-47
2022/03/05 06:35:26;;;;;;;36.53;15.60;;;1.00;99.90;;;;;;5074534;28;20185;-47
2022/03/05 06:37:52;;;;;;;41.83;16.13;;;1.00;99.90;;;;;;5074329;28;20190;-46
2022/03/05 06:40:18;;;;;;;38.63;15.85;;;1.10;99.90;;;;;;5074390;28;20684;-46
2022/03/05 06:42:45;;;;;;;38.33;15.77;;;1.10;99.90;;;;;;5074256;28;20597;-47
2022/03/05 06:45:11;;;;;;;37.45;15.35;;;1.20;99.90;;;;;;5074222;28;20200;-47
2022/03/05 06:47:38;;;;;;;35.22;16.08;;;1.20;99.90;;;;;;5074439;28;20204;-47
2022/03/05 06:50:05;;;;;;;38.58;14.93;;;1.20;99.90;;;;;;5074174;28;20616;-46
2022/03/05 06:52:31;;;;;;;36.58;15.43;;;1.20;99.90;;;;;;5074174;28;20253;-46
2022/03/05 06:54:57;;;;;;;42.03;15.60;;;1.20;99.90;;;;;;5074047;28;20667;-47
2022/03/05 06:57:23;;;;;;;41.37;16.67;;;1.20;99.90;;;;;;5072582;28;20174;-46
2022/03/05 06:59:49;;;;;;;39.78;15.13;;;1.30;99.90;;;;;;5073965;28;20174;-46
2022/03/05 07:02:14;;;;;;;37.05;15.18;;;1.30;99.90;;;;;;5073787;28;20253;-46
2022/03/05 07:04:40;;;;;;;41.10;16.45;;;1.30;99.90;;;;;;5073414;28;20581;-46
2022/03/05 07:07:06;;;;;;;38.00;16.42;;;1.40;99.90;;;;;;5073841;28;20208;-46
2022/03/05 07:09:32;;;;;;;40.60;15.07;;;1.40;99.90;;;;;;5073750;28;20237;-46
2022/03/05 07:11:58;;;;;;;37.20;16.35;;;1.40;99.90;;;;;;5073652;28;20184;-46
2022/03/05 07:14:23;;;;;;;38.50;16.25;;;1.40;99.90;;;;;;5073533;28;20627;-47
2022/03/05 07:16:49;;;;;;;42.53;16.40;;;1.40;99.90;;;;;;5073206;28;20166;-47
2022/03/05 07:19:15;;;;;;;35.53;15.88;;;1.50;99.90;;;;;;5073541;28;20241;-46
2022/03/05 07:21:41;;;;;;;36.95;15.88;;;1.60;99.90;;;;;;5072940;28;20257;-46
2022/03/05 07:24:08;;;;;;;35.60;16.42;;;1.60;99.90;;;;;;5073536;28;20166;-46
2022/03/05 07:26:33;;;;;;;40.22;16.95;;;1.70;99.90;;;;;;5073082;28;20177;-46
2022/03/05 07:28:59;;;;;;;47.25;18.13;;;1.70;99.90;;;;;;5072813;28;20202;-47
2022/03/05 07:31:25;;;;;;;40.08;16.52;;;1.80;99.90;;;;;;5072904;28;20219;-46
2022/03/05 07:33:50;;;;;;;45.10;17.85;;;1.90;99.90;;;;;;5073233;28;20189;-47
2022/03/05 07:36:16;;;;;;;44.25;17.00;;;2.00;99.90;;;;;;5073530;28;20193;-46
2022/03/05 07:38:44;;;;;;;48.72;20.15;;;2.00;99.90;;;;;;5073390;28;20189;-48
2022/03/05 07:41:14;;;;;;;44.78;17.52;;;2.10;99.90;;;;;;5072918;28;20162;-46
2022/03/05 07:43:40;;;;;;;45.08;18.80;;;2.10;99.90;;;;;;5073259;28;20216;-47
2022/03/05 07:46:06;;;;;;;37.95;16.35;;;2.10;99.90;;;;;;5071356;28;20557;-46
2022/03/05 07:48:32;;;;;;;38.10;16.95;;;2.10;99.90;;;;;;5053699;28;20667;-45
2022/03/05 07:50:59;;;;;;;45.63;17.30;;;2.30;99.90;;;;;;5071369;28;20174;-46
2022/03/05 07:53:27;;;;;;;54.75;20.25;;;2.50;99.90;;;;;;5070007;28;20185;-47
2022/03/05 07:55:53;;;;;;;58.15;22.58;;;2.50;99.90;;;;;;5071814;28;20174;-45
2022/03/05 07:58:19;;;;;;;51.20;20.05;;;2.60;99.90;;;;;;5071520;28;20255;-46
2022/03/05 08:00:44;;;;;;;47.67;19.13;;;2.70;99.90;;;;;;5071481;28;20162;-47
2022/03/05 08:03:10;;;;;;;52.20;21.55;;;2.70;99.90;;;;;;5071473;28;20193;-48
2022/03/05 08:05:35;;;;;;;41.45;18.17;;;2.80;99.90;;;;;;5071635;28;20197;-47
2022/03/05 08:08:01;;;;;;;58.60;18.05;;;2.80;99.90;;;;;;5070857;28;20292;-48
2022/03/05 08:10:26;;;;;;;38.67;15.75;;;2.90;99.90;;;;;;5071494;28;20166;-48
2022/03/05 08:12:52;;;;;;;40.58;17.13;;;2.90;99.90;;;;;;5071079;28;20663;-49
2022/03/05 08:15:17;;;;;;;41.05;17.98;;;3.10;99.90;;;;;;5071211;28;20201;-50
2022/03/05 08:17:57;;;;;;;52.50;18.70;;;3.00;99.90;;;;;;5071439;28;20170;-46
2022/03/05 08:20:25;;;;;;;57.00;20.23;;;3.20;99.90;;;;;;5071674;28;20177;-47
2022/03/05 08:22:51;;;;;;;45.22;18.20;;;3.40;99.90;;;;;;5053988;28;20197;-46
2022/03/05 08:25:17;;;;;;;47.97;20.42;;;3.50;99.90;;;;;;5072377;28;20266;-47
2022/03/05 08:27:42;;;;;;;54.10;19.38;;;3.50;99.90;;;;;;5071728;28;20205;-47
2022/03/05 08:30:09;;;;;;;47.03;20.08;;;3.70;99.90;;;;;;5072561;28;20189;-47
2022/03/05 08:32:35;;;;;;;44.13;19.00;;;3.70;99.90;;;;;;5072217;28;20170;-47
2022/03/05 08:35:00;;;;;;;36.58;17.48;;;3.80;99.90;;;;;;5072251;28;20223;-47
2022/03/05 08:37:27;;;;;;;37.42;18.23;;;3.80;99.90;;;;;;5072180;28;20212;-47
2022/03/05 08:39:53;;;;;;;39.10;17.63;;;3.80;99.90;;;;;;5072078;28;20173;-47
2022/03/05 08:42:19;;;;;;;41.47;19.42;;;3.90;99.90;;;;;;5072194;28;20162;-47
2022/03/05 08:44:45;;;;;;;37.67;18.75;;;4.00;99.90;;;;;;5072130;28;20170;-48
2022/03/05 08:47:11;;;;;;;37.60;17.38;;;4.30;99.90;;;;;;5071852;28;20217;-48
2022/03/05 08:49:36;;;;;;;39.60;18.33;;;4.30;99.90;;;;;;5072204;28;20233;-47
2022/03/05 08:52:02;;;;;;;37.75;17.88;;;4.40;99.90;;;;;;5071895;28;20181;-47
2022/03/05 08:54:28;;;;;;;36.75;18.20;;;4.40;99.90;;;;;;5071862;28;20166;-47
2022/03/05 08:56:53;;;;;;;37.30;16.27;;;4.50;99.90;;;;;;5071759;28;20170;-47
2022/03/05 08:59:19;;;;;;;37.35;17.55;;;4.50;99.90;;;;;;5071532;28;20224;-47
2022/03/05 09:01:45;;;;;;;35.22;16.40;;;4.60;99.90;;;;;;5071705;28;20654;-48
2022/03/05 09:04:12;;;;;;;47.90;21.83;;;4.80;99.90;;;;;;5071663;28;20158;-47
2022/03/05 09:06:38;;;;;;;38.03;18.33;;;4.80;99.90;;;;;;5072365;28;20237;-47
2022/03/05 09:09:05;;;;;;;40.08;19.70;;;5.00;99.90;;;;;;5071952;28;20205;-47
2022/03/05 09:11:31;;;;;;;38.60;18.50;;;5.00;99.90;;;;;;5071735;28;20170;-47
2022/03/05 09:13:57;;;;;;;45.22;20.60;;;5.00;99.90;;;;;;5071715;28;20173;-47
2022/03/05 09:16:22;;;;;;;36.92;17.90;;;4.90;99.90;;;;;;5071676;28;20217;-48
2022/03/05 09:18:48;;;;;;;44.22;18.17;;;5.20;99.90;;;;;;5071618;28;20733;-48
2022/03/05 09:21:14;;;;;;;45.53;18.73;;;5.00;99.90;;;;;;5074635;28;20165;-47
2022/03/05 09:23:40;;;;;;;46.03;22.63;;;5.10;99.90;;;;;;5075790;28;20249;-48
2022/03/05 09:26:05;;;;;;;42.63;19.42;;;5.10;99.90;;;;;;5076082;28;20262;-48
2022/03/05 09:28:31;;;;;;;38.42;19.02;;;5.40;99.90;;;;;;5075656;28;20600;-48
2022/03/05 09:30:58;;;;;;;39.08;18.23;;;5.30;99.90;;;;;;5075683;28;20196;-48
2022/03/05 09:33:25;;;;;;;35.92;17.90;;;5.50;99.90;;;;;;5075481;28;20181;-48
2022/03/05 09:35:51;;;;;;;38.30;18.02;;;5.60;99.90;;;;;;5075595;28;20245;-48
2022/03/05 09:38:16;;;;;;;39.50;20.00;;;5.60;99.90;;;;;;5075246;28;20638;-47
2022/03/05 09:40:42;;;;;;;36.30;18.50;;;5.80;99.90;;;;;;5075395;28;20165;-48
2022/03/05 09:43:08;;;;;;;37.03;18.02;;;5.70;99.90;;;;;;5075687;28;20190;-49
2022/03/05 09:45:34;;;;;;;35.45;19.00;;;5.90;99.90;;;;;;5075192;28;20699;-48
2022/03/05 09:48:00;;;;;;;47.85;19.95;;;6.00;99.90;;;;;;5075178;28;20289;-47
2022/03/05 09:50:29;;;;;;;34.15;17.50;;;6.00;99.90;;;;;;5075296;28;20720;-48
2022/03/05 09:52:59;;;;;;;41.50;19.25;;;6.20;99.90;;;;;;5075201;28;20588;-48
2022/03/05 09:55:26;;;;;;;40.47;20.23;;;6.20;99.90;;;;;;5075158;28;20198;-49
2022/03/05 09:57:52;;;;;;;34.83;17.52;;;6.30;99.90;;;;;;5075404;28;20499;-48
2022/03/05 10:00:18;;;;;;;35.17;18.40;;;6.40;99.90;;;;;;5075223;28;20679;-47
2022/03/05 10:02:46;;;;;;;45.47;22.25;;;6.40;99.90;;;;;;5075241;28;20170;-48
2022/03/05 10:05:15;;;;;;;43.67;19.70;;;6.50;99.90;;;;;;5074927;28;20180;-48
2022/03/05 10:08:11;;;;;;;44.42;17.75;;;6.50;99.90;;;;;;5074809;28;20281;-48
2022/03/05 10:10:52;;;;;;;31.58;16.73;;;6.60;99.90;;;;;;5075385;28;20246;-49
2022/03/05 10:13:25;;;;;;;34.30;17.38;;;6.70;99.90;;;;;;5074833;28;20219;-48
2022/03/05 10:15:57;;;;;;;33.75;16.38;;;6.80;99.90;;;;;;5074817;28;20162;-48
2022/03/05 10:18:38;;;;;;;34.28;16.90;;;6.80;99.90;;;;;;5074618;28;20563;-48
2022/03/05 10:21:06;;;;;;;29.48;16.60;;;6.90;99.90;;;;;;5074927;28;20244;-48
2022/03/05 10:23:37;;;;;;;36.97;17.90;;;7.00;99.90;;;;;;5074579;28;20162;-49
2022/03/05 10:26:08;;;;;;;34.22;17.40;;;7.10;99.90;;;;;;5074783;28;20580;-49
2022/03/05 10:28:34;;;;;;;38.22;17.85;;;7.30;99.90;;;;;;5074890;28;20212;-49
2022/03/05 10:31:11;;;;;;;34.28;16.55;;;7.20;99.90;;;;;;5074646;28;20169;-48
2022/03/05 10:33:45;;;;;;;31.50;17.08;;;7.30;99.90;;;;;;5074669;28;20166;-49
2022/03/05 10:36:22;;;;;;;35.28;18.60;;;7.30;99.90;;;;;;5074379;28;20253;-48
2022/03/05 10:38:53;;;;;;;33.22;16.58;;;7.40;99.90;;;;;;5074492;28;20209;-47
2022/03/05 10:41:40;;;;;;;29.77;15.25;;;7.50;99.90;;;;;;5074609;28;20553;-48
2022/03/05 10:44:15;;;;;;;37.63;20.25;;;7.70;99.90;;;;;;5074023;28;20227;-48
2022/03/05 10:46:46;;;;;;;35.55;19.55;;;7.80;99.90;;;;;;5073997;28;20309;-48
2022/03/05 10:49:19;;;;;;;47.88;29.23;;;7.90;99.90;;;;;;5074310;28;20209;-48
2022/03/05 10:51:58;;;;;;;37.60;19.88;;;7.80;99.90;;;;;;5074355;28;20204;-48
2022/03/05 10:54:38;;;;;;;35.88;16.38;;;8.10;99.90;;;;;;5074039;28;20166;-49
2022/03/05 10:57:21;;;;;;;38.50;21.77;;;8.20;99.90;;;;;;5074447;28;20177;-48
2022/03/05 10:59:54;;;;;;;33.13;18.10;;;8.30;99.90;;;;;;5073976;28;20532;-49
2022/03/05 11:02:21;;;;;;;41.13;17.50;;;8.30;99.90;;;;;;5074136;28;20170;-48
2022/03/05 11:04:48;;;;;;;53.58;26.35;;;8.20;99.90;;;;;;5073196;28;20158;-49
2022/03/05 11:07:19;;;;;;;35.63;17.23;;;8.40;99.90;;;;;;5073309;28;20531;-48
2022/03/05 11:09:47;;;;;;;30.30;16.50;;;8.40;99.90;;;;;;5072296;28;20694;-48
2022/03/05 11:12:18;;;;;;;36.88;22.85;;;8.60;99.90;;;;;;5073138;28;20642;-48
2022/03/05 11:14:48;;;;;;;32.97;19.38;;;8.60;99.90;;;;;;5073659;28;20170;-48
2022/03/05 11:17:14;;;;;;;53.95;31.73;;;8.80;99.90;;;;;;5073252;28;20158;-48
2022/03/05 11:19:40;;;;;;;43.05;18.48;;;8.70;99.90;;;;;;5072613;28;20173;-48
2022/03/05 11:22:08;;;;;;;30.25;16.27;;;8.80;99.90;;;;;;5073751;28;20170;-48
2022/03/05 11:24:34;;;;;;;44.50;22.88;;;8.90;99.90;;;;;;5073202;28;20173;-47
2022/03/05 11:26:59;;;;;;;35.92;20.67;;;9.10;99.90;;;;;;5073133;28;20540;-49
2022/03/05 11:29:27;;;;;;;29.80;16.85;;;9.10;99.90;;;;;;5073155;28;20205;-48
2022/03/05 11:32:08;;;;;;;53.13;34.75;;;9.10;99.90;;;;;;5073448;28;20247;-48
2022/03/05 11:34:43;;;;;;;31.23;15.57;;;9.10;99.90;;;;;;5073680;28;20611;-48
2022/03/05 11:37:24;;;;;;;24.08;15.30;;;9.20;99.90;;;;;;5073587;28;20196;-47
2022/03/05 11:39:50;;;;;;;26.58;13.88;;;9.10;99.90;;;;;;5073435;28;20234;-47
2022/03/05 11:42:29;;;;;;;25.88;14.27;;;9.10;99.90;;;;;;5072432;28;20567;-48
2022/03/05 11:44:55;;;;;;;28.77;15.82;;;9.10;99.90;;;;;;5072863;28;20170;-47
2022/03/05 11:47:28;;;;;;;28.73;19.35;;;9.20;99.90;;;;;;5072960;28;20512;-47
2022/03/05 11:49:58;;;;;;;54.75;17.63;;;9.40;99.90;;;;;;5072812;28;20178;-48
2022/03/05 11:52:43;;;;;;;21.98;13.40;;;9.70;99.90;;;;;;5072911;28;20181;-48
2022/03/05 11:55:14;;;;;;;21.65;13.90;;;9.60;99.90;;;;;;5072928;28;20170;-47
2022/03/05 11:58:03;;;;;;;23.27;13.90;;;9.60;99.90;;;;;;5054979;28;20174;-48
2022/03/05 12:00:31;;;;;;;20.90;14.27;;;9.40;99.90;;;;;;5072847;28;21030;-48
2022/03/05 12:03:00;;;;;;;24.63;13.32;;;9.50;99.90;;;;;;5073110;28;20246;-47
2022/03/05 12:05:38;;;;;;;25.98;13.88;;;9.70;99.90;;;;;;5054490;28;20635;-47
2022/03/05 12:08:06;;;;;;;20.70;13.63;;;9.70;99.80;;;;;;5072615;28;20235;-47
2022/03/05 12:10:33;;;;;;;22.00;13.25;;;9.70;99.60;;;;;;5072435;28;20174;-47
2022/03/05 12:13:01;;;;;;;26.55;13.80;;;9.70;98.90;;;;;;5072420;28;20216;-47
2022/03/05 12:15:31;;;;;;;24.58;14.75;;;10.00;99.00;;;;;;5054608;28;20623;-47
2022/03/05 12:17:56;;;;;;;31.95;13.15;;;10.10;97.60;;;;;;5072795;28;20174;-47
2022/03/05 12:20:43;;;;;;;26.50;12.55;;;10.00;96.40;;;;;;5054187;28;20220;-47
2022/03/05 12:23:17;;;;;;;25.45;12.60;;;10.00;96.90;;;;;;5072220;28;20176;-47
2022/03/05 12:25:45;;;;;;;21.63;12.80;;;10.00;95.30;;;;;;5072106;28;20174;-48
2022/03/05 12:28:17;;;;;;;17.58;11.57;;;10.10;95.10;;;;;;5072273;28;20235;-48
2022/03/05 12:30:44;;;;;;;18.58;11.98;;;10.00;93.40;;;;;;5072157;28;20566;-46
2022/03/05 12:33:15;;;;;;;24.17;13.77;;;10.10;93.80;;;;;;5072208;28;20174;-48
2022/03/05 12:35:43;;;;;;;28.33;12.68;;;10.20;93.30;;;;;;5072164;28;20162;-49
2022/03/05 12:38:10;;;;;;;20.90;10.82;;;10.30;93.60;;;;;;5072300;28;20170;-49